logo
Rechercher aéroport 
image banner adimage banner adimage banner ad
image banner ad

SJFL - Fazenda Campo Formoso

Situé à Sandolandia, Brazil

ICAO - SJFL, IATA -

Données fournies par Airmate  

Information générale

Coordonnées: S12°33'42" W49°51'56"
Élévation : 1082 feet MSL.
Variation magnétique : -21.143850033° East
Voir autres Aéroports à Tocatins

Données opérationnelles

Special qualification required
Heure actuelle UTC:
Heure actuelle locale:
Météo à : - ( 0 km )
METAR: CYIN 251621Z AUTO 32007KT 290V350 9SM SCT009 BKN023 BKN039 06/04 A2967 RMK SLP063
Voir NOTAMs / SUP AIP / TFR affectant cet aéroport [VIEW]
Fréquences de communication: [VIEW]

Pistes:

Identifiant RWYQFULongueur (ft)Largeur (ft)SurfaceLDA (ft)
06262566GRAVEL
24262566GRAVEL

Coordonnées de l'aéroport

Adresse: Sandolandia Brazil

Vue satellite de SJFL